createdAt,value
2023-04-20T05:24:23.811Z,1448.00
2023-04-20T05:25:02.171Z,1624.00
2023-04-20T05:26:02.149Z,1732.00
2023-04-20T05:27:02.127Z,1872.00
2023-04-20T05:28:02.120Z,1972.00
2023-04-20T05:29:02.111Z,2036.00
2023-04-20T05:30:13.186Z,1912.00
2023-04-20T05:31:02.114Z,1748.00
2023-04-20T05:32:02.168Z,1684.00
2023-04-20T05:33:02.112Z,1844.00
2023-04-20T05:34:02.088Z,2040.00
2023-04-20T05:35:02.032Z,2156.00
2023-04-20T05:36:02.023Z,2084.00
2023-04-20T05:37:02.046Z,1948.00
2023-04-20T05:38:02.020Z,1944.00
2023-04-20T05:39:02.006Z,2088.00
2023-04-20T05:40:02.000Z,2260.00
2023-04-20T05:41:01.991Z,2400.00
2023-04-20T05:42:02.002Z,2372.00
2023-04-20T05:43:01.956Z,2268.00
2023-04-20T05:44:01.947Z,2160.00
2023-04-20T05:45:01.952Z,2132.00
2023-04-20T05:46:01.960Z,2172.00
2023-04-20T05:47:01.924Z,2296.00
2023-04-20T05:48:02.030Z,2440.00
2023-04-20T05:49:01.910Z,2508.00
2023-04-20T05:50:01.898Z,2412.00
2023-04-20T05:51:01.887Z,2212.00
2023-04-20T05:52:01.874Z,2056.00
2023-04-20T05:53:01.856Z,1980.00
2023-04-20T05:54:01.841Z,1976.00
2023-04-20T05:55:01.831Z,1960.00
2023-04-20T05:56:01.808Z,1960.00
2023-04-20T05:57:01.821Z,2004.00
2023-04-20T05:58:01.786Z,2060.00
2023-04-20T05:59:01.785Z,2140.00
2023-04-20T06:00:01.768Z,2228.00
2023-04-20T06:01:01.760Z,2316.00
2023-04-20T06:02:01.912Z,2584.00
2023-04-20T06:03:02.101Z,3148.00
2023-04-20T06:04:01.875Z,3508.00
2023-04-20T06:05:01.781Z,3620.00
2023-04-20T06:06:01.727Z,3388.00
2023-04-20T06:07:01.702Z,3196.00
2023-04-20T06:08:01.698Z,3052.00
2023-04-20T06:09:01.673Z,2940.00
2023-04-20T06:10:01.703Z,2908.00
2023-04-20T06:11:01.661Z,2924.00
2023-04-20T06:12:01.676Z,2928.00
2023-04-20T06:13:01.645Z,2984.00
2023-04-20T06:14:01.622Z,3084.00
2023-04-20T06:15:01.649Z,3084.00
2023-04-20T06:16:01.642Z,3104.00
2023-04-20T06:17:01.594Z,3308.00
2023-04-20T06:18:01.827Z,3276.00
2023-04-20T06:19:01.592Z,3188.00
2023-04-20T06:20:01.561Z,3072.00
2023-04-20T06:21:01.564Z,2948.00
2023-04-20T06:22:01.580Z,2832.00
2023-04-20T06:23:01.541Z,2780.00
2023-04-20T06:24:01.518Z,2764.00
2023-04-20T06:25:01.507Z,2720.00
2023-04-20T06:26:01.488Z,2900.00
2023-04-20T06:27:01.475Z,2884.00
2023-04-20T06:28:01.460Z,2720.00
2023-04-20T06:29:01.469Z,2816.00
2023-04-20T06:30:01.454Z,2576.00
2023-04-20T06:31:01.577Z,2648.00
2023-04-20T06:32:01.447Z,2944.00
2023-04-20T06:33:01.564Z,3136.00
2023-04-20T06:34:01.434Z,3304.00
2023-04-20T06:35:01.386Z,3656.00
2023-04-20T06:36:01.399Z,4124.00
2023-04-20T06:37:01.364Z,4004.00
2023-04-20T06:38:01.368Z,4008.00
2023-04-20T06:39:01.333Z,4472.00
2023-04-20T06:40:01.329Z,4528.00
2023-04-20T06:41:01.335Z,4272.00
2023-04-20T06:42:01.318Z,4028.00
2023-04-20T06:43:01.314Z,3812.00
2023-04-20T06:44:01.292Z,4256.00
2023-04-20T06:45:01.280Z,4068.00
2023-04-20T06:46:01.273Z,3832.00
2023-04-20T06:47:01.323Z,3960.00
2023-04-20T06:48:01.297Z,4220.00
2023-04-20T06:49:01.232Z,4452.00
2023-04-20T06:50:01.227Z,4640.00
2023-04-20T06:51:01.213Z,4424.00
2023-04-20T06:52:01.205Z,4492.00
2023-04-20T06:53:01.194Z,5400.00
2023-04-20T06:54:01.185Z,7216.00
2023-04-20T06:55:01.200Z,8000.00
2023-04-20T06:56:01.168Z,7452.00
2023-04-20T06:57:01.133Z,6272.00
2023-04-20T06:58:01.139Z,5232.00
2023-04-20T06:59:01.114Z,4888.00
2023-04-20T07:00:01.122Z,5096.00
2023-04-20T07:01:01.087Z,5112.00
2023-04-20T07:02:01.280Z,4288.00
2023-04-20T07:03:01.222Z,4700.00
2023-04-20T07:04:01.170Z,4796.00
2023-04-20T07:05:01.185Z,4456.00
2023-04-20T07:06:01.027Z,4844.00
2023-04-20T07:07:01.073Z,5516.00
2023-04-20T07:08:01.021Z,6084.00
2023-04-20T07:09:01.026Z,6324.00
2023-04-20T07:10:01.011Z,6372.00
2023-04-20T07:11:00.981Z,6204.00
2023-04-20T07:12:01.001Z,6528.00
2023-04-20T07:13:01.020Z,5984.00
2023-04-20T07:14:00.959Z,4720.00
2023-04-20T07:15:00.977Z,4168.00
2023-04-20T07:16:00.985Z,4060.00
2023-04-20T07:17:00.944Z,3376.00
2023-04-20T07:18:00.964Z,2908.00
2023-04-20T07:19:00.892Z,3044.00
2023-04-20T07:20:00.884Z,3408.00
2023-04-20T07:21:00.898Z,3784.00
2023-04-20T07:22:00.869Z,4220.00
2023-04-20T07:23:00.868Z,4768.00
2023-04-20T07:24:00.882Z,5260.00
2023-04-20T07:25:00.861Z,5200.00
2023-04-20T07:26:00.817Z,5180.00
2023-04-20T07:27:00.899Z,5304.00
2023-04-20T07:28:00.855Z,5004.00
2023-04-20T07:29:00.803Z,4816.00
2023-04-20T07:30:00.785Z,4452.00
2023-04-20T07:31:00.772Z,4288.00
2023-04-20T07:32:00.783Z,4416.00
2023-04-20T07:33:00.818Z,4876.00
2023-04-20T07:34:00.728Z,5444.00
2023-04-20T07:35:00.773Z,6396.00
2023-04-20T07:36:00.702Z,6988.00
2023-04-20T07:37:00.723Z,6944.00
2023-04-20T07:38:00.723Z,6264.00
2023-04-20T07:39:00.682Z,5080.00
2023-04-20T07:40:00.657Z,4420.00
2023-04-20T07:41:00.661Z,4100.00
2023-04-20T07:42:00.664Z,3860.00
2023-04-20T07:43:00.658Z,3912.00
2023-04-20T07:44:00.772Z,3992.00
2023-04-20T07:45:00.625Z,3880.00
2023-04-20T07:46:00.673Z,3640.00
2023-04-20T07:47:00.960Z,3636.00
2023-04-20T07:48:00.658Z,3544.00
2023-04-20T07:49:00.583Z,3464.00
2023-04-20T07:50:00.553Z,3640.00
2023-04-20T07:51:00.555Z,3644.00
2023-04-20T07:52:12.987Z,3164.00
2023-04-20T07:53:00.535Z,2852.00
2023-04-20T07:54:00.510Z,2928.00
2023-04-20T07:55:00.521Z,2820.00
2023-04-20T07:56:00.537Z,2696.00
2023-04-20T07:57:00.492Z,2896.00
2023-04-20T07:58:00.498Z,2996.00
2023-04-20T07:59:00.604Z,3540.00
2023-04-20T08:00:00.524Z,3956.00
2023-04-20T08:01:00.461Z,3868.00
2023-04-20T08:02:00.552Z,3668.00
2023-04-20T08:03:00.568Z,3480.00
2023-04-20T08:04:00.621Z,3700.00
2023-04-20T08:05:00.685Z,4220.00
2023-04-20T08:06:00.489Z,4628.00
2023-04-20T08:07:00.368Z,4836.00
2023-04-20T08:08:00.366Z,5028.00
2023-04-20T08:09:00.369Z,4764.00
2023-04-20T08:10:00.365Z,4416.00
2023-04-20T08:11:00.396Z,4224.00
2023-04-20T08:12:00.354Z,3984.00
2023-04-20T08:13:00.338Z,3832.00
2023-04-20T08:14:00.429Z,3808.00
2023-04-20T08:15:00.337Z,3780.00
2023-04-20T08:16:00.592Z,3568.00
2023-04-20T08:17:00.287Z,3368.00
2023-04-20T08:18:00.390Z,3364.00
2023-04-20T08:19:00.246Z,3324.00
2023-04-20T08:20:00.233Z,3452.00
2023-04-20T08:21:00.232Z,3812.00
2023-04-20T08:22:01.375Z,4180.00
2023-04-20T08:23:00.203Z,4408.00
2023-04-20T08:24:00.429Z,4508.00
2023-04-20T08:25:00.188Z,4468.00
2023-04-20T08:26:00.199Z,4364.00
2023-04-20T08:27:00.163Z,4148.00
2023-04-20T08:28:00.313Z,4020.00
2023-04-20T08:29:00.162Z,3940.00
2023-04-20T08:30:00.125Z,3764.00
2023-04-20T08:31:00.192Z,3624.00
2023-04-20T08:32:00.188Z,3980.00
2023-04-20T08:33:00.168Z,4104.00
2023-04-20T08:34:00.098Z,4040.00
2023-04-20T08:35:00.088Z,4012.00
2023-04-20T08:36:00.073Z,3912.00
2023-04-20T08:37:00.070Z,3752.00
2023-04-20T08:38:00.081Z,3552.00
2023-04-20T08:39:00.036Z,3264.00
2023-04-20T08:40:00.062Z,2784.00
2023-04-20T08:41:00.016Z,2328.00
2023-04-20T08:42:00.008Z,2076.00
2023-04-20T08:42:59.986Z,1968.00
2023-04-20T08:43:59.965Z,1896.00
2023-04-20T08:44:59.964Z,1976.00
2023-04-20T08:45:59.975Z,2036.00
2023-04-20T08:47:00.077Z,2232.00
2023-04-20T08:47:59.940Z,2236.00
2023-04-20T08:48:59.941Z,2444.00
2023-04-20T08:49:59.899Z,2108.00
2023-04-20T08:50:59.887Z,1744.00
2023-04-20T08:51:59.924Z,1632.00
2023-04-20T08:52:59.868Z,1676.00
2023-04-20T08:53:59.858Z,1756.00
2023-04-20T08:54:59.844Z,1948.00
2023-04-20T08:55:59.886Z,2100.00
2023-04-20T08:56:59.819Z,1920.00
2023-04-20T08:57:59.825Z,1980.00
2023-04-20T08:58:59.810Z,2116.00
2023-04-20T08:59:59.779Z,2312.00
2023-04-20T09:00:59.773Z,2516.00
2023-04-20T09:01:59.915Z,2788.00
2023-04-20T09:02:59.892Z,3196.00
2023-04-20T09:03:59.959Z,3600.00
2023-04-20T09:04:59.769Z,3648.00
2023-04-20T09:05:59.727Z,3712.00
2023-04-20T09:06:59.724Z,3612.00
2023-04-20T09:07:59.825Z,3720.00
2023-04-20T09:08:59.700Z,3604.00
2023-04-20T09:09:59.817Z,3468.00
2023-04-20T09:10:59.704Z,3440.00
2023-04-20T09:11:59.645Z,3208.00
2023-04-20T09:12:59.691Z,2680.00
2023-04-20T09:13:59.664Z,2804.00
2023-04-20T09:14:59.622Z,2996.00
2023-04-20T09:15:59.624Z,3144.00
2023-04-20T09:16:59.615Z,3164.00
2023-04-20T09:17:59.606Z,3104.00
2023-04-20T09:18:59.606Z,2808.00
2023-04-20T09:19:59.576Z,2672.00
2023-04-20T09:20:59.581Z,2740.00
2023-04-20T09:21:59.553Z,2952.00
2023-04-20T09:22:59.553Z,3448.00
2023-04-20T09:23:59.521Z,3188.00
2023-04-20T09:24:59.521Z,3384.00
2023-04-20T09:25:59.539Z,4152.00
2023-04-20T09:26:59.506Z,4452.00
2023-04-20T09:27:59.508Z,4236.00
2023-04-20T09:28:59.609Z,4040.00
2023-04-20T09:29:59.471Z,3640.00
2023-04-20T09:30:59.453Z,3488.00
2023-04-20T09:31:59.452Z,3672.00
2023-04-20T09:32:59.452Z,4180.00
2023-04-20T09:33:59.415Z,4280.00
2023-04-20T09:34:59.427Z,4120.00
2023-04-20T09:35:59.383Z,4068.00
2023-04-20T09:36:59.383Z,3696.00
2023-04-20T09:37:59.392Z,3428.00
2023-04-20T09:38:59.356Z,3216.00
2023-04-20T09:39:59.349Z,3148.00
2023-04-20T09:40:59.352Z,3120.00
2023-04-20T09:41:59.333Z,3460.00
2023-04-20T09:42:59.337Z,3892.00
2023-04-20T09:43:59.299Z,3804.00
2023-04-20T09:44:59.300Z,3604.00
2023-04-20T09:45:59.401Z,3372.00
2023-04-20T09:46:59.299Z,3336.00
2023-04-20T09:47:59.285Z,3392.00
2023-04-20T09:48:59.282Z,3764.00
2023-04-20T09:50:04.448Z,4212.00
2023-04-20T09:50:59.237Z,4740.00
2023-04-20T09:51:59.206Z,5104.00
2023-04-20T09:52:59.202Z,5112.00
2023-04-20T09:53:59.181Z,5028.00
2023-04-20T09:54:59.204Z,5028.00
2023-04-20T09:55:59.187Z,5444.00
2023-04-20T09:56:59.148Z,5980.00
2023-04-20T09:57:59.169Z,6296.00
2023-04-20T09:58:59.142Z,6036.00
2023-04-20T09:59:59.138Z,6156.00
2023-04-20T10:00:59.129Z,6336.00
2023-04-20T10:01:59.245Z,6808.00
2023-04-20T10:02:59.209Z,7668.00
2023-04-20T10:03:59.428Z,8056.00
2023-04-20T10:04:59.068Z,8032.00
2023-04-20T10:05:59.075Z,8204.00
2023-04-20T10:06:59.073Z,8120.00
2023-04-20T10:07:59.036Z,7940.00
2023-04-20T10:08:59.039Z,8420.00
2023-04-20T10:09:59.027Z,9676.00
2023-04-20T10:10:59.002Z,9692.00
2023-04-20T10:11:59.657Z,9500.00
2023-04-20T10:12:58.972Z,9432.00
2023-04-20T10:13:58.976Z,8968.00
2023-04-20T10:14:58.968Z,8308.00
2023-04-20T10:15:59.023Z,7380.00
2023-04-20T10:16:59.041Z,6948.00
2023-04-20T10:17:59.078Z,6816.00
2023-04-20T10:18:58.947Z,6956.00
2023-04-20T10:19:58.921Z,7100.00
2023-04-20T10:20:58.899Z,7576.00
2023-04-20T10:21:58.906Z,7984.00
2023-04-20T10:22:58.869Z,8204.00
2023-04-20T10:23:58.901Z,8168.00
2023-04-20T10:24:58.863Z,8280.00
2023-04-20T10:25:58.844Z,7772.00
2023-04-20T10:26:58.830Z,7404.00
2023-04-20T10:27:58.833Z,6876.00
2023-04-20T10:28:58.811Z,5568.00
2023-04-20T10:29:58.981Z,5004.00
2023-04-20T10:30:58.870Z,5440.00
2023-04-20T10:31:58.773Z,5688.00
2023-04-20T10:32:58.850Z,5920.00
2023-04-20T10:33:58.778Z,6300.00
2023-04-20T10:34:58.789Z,6648.00
2023-04-20T10:35:58.728Z,6604.00
2023-04-20T10:36:58.704Z,6144.00
2023-04-20T10:37:58.736Z,4992.00
2023-04-20T10:38:58.704Z,4952.00
2023-04-20T10:39:58.708Z,5852.00
2023-04-20T10:40:58.677Z,6592.00
2023-04-20T10:41:58.677Z,6724.00
2023-04-20T10:42:58.642Z,5640.00
2023-04-20T10:43:58.676Z,4804.00
2023-04-20T10:44:58.646Z,4684.00
2023-04-20T10:45:58.676Z,4564.00
2023-04-20T10:46:58.618Z,4168.00
2023-04-20T10:47:58.657Z,3960.00
2023-04-20T10:48:58.632Z,4260.00
2023-04-20T10:49:58.575Z,4580.00
2023-04-20T10:50:58.557Z,4716.00
2023-04-20T10:51:58.558Z,4684.00
2023-04-20T10:52:58.684Z,4376.00
2023-04-20T10:53:58.532Z,4092.00
2023-04-20T10:54:58.566Z,3824.00
2023-04-20T10:55:58.539Z,3836.00
2023-04-20T10:56:58.492Z,3824.00
2023-04-20T10:57:58.497Z,3708.00
2023-04-20T10:58:59.461Z,3576.00
2023-04-20T10:59:58.492Z,3468.00
2023-04-20T11:00:58.501Z,3580.00
2023-04-20T11:01:58.577Z,3704.00
2023-04-20T11:02:58.587Z,3776.00
2023-04-20T11:03:58.452Z,3748.00
2023-04-20T11:04:58.459Z,3656.00
2023-04-20T11:05:58.422Z,3488.00
2023-04-20T11:06:58.387Z,3468.00
2023-04-20T11:07:58.398Z,3568.00
2023-04-20T11:08:58.359Z,3636.00
2023-04-20T11:09:58.376Z,3836.00
2023-04-20T11:10:58.353Z,3948.00
2023-04-20T11:11:58.365Z,3872.00
2023-04-20T11:12:58.325Z,4072.00
2023-04-20T11:13:58.318Z,4240.00
2023-04-20T11:14:58.308Z,4304.00
2023-04-20T11:15:58.352Z,5076.00
2023-04-20T11:16:58.376Z,5676.00
2023-04-20T11:17:58.326Z,5204.00
2023-04-20T11:18:58.246Z,5004.00
2023-04-20T11:19:58.252Z,5436.00
2023-04-20T11:20:58.218Z,5660.00
2023-04-20T11:21:58.225Z,5696.00
2023-04-20T11:22:58.204Z,5372.00
2023-04-20T11:23:58.205Z,5036.00
2023-04-20T11:24:58.344Z,5488.00
2023-04-20T11:25:58.202Z,5960.00
2023-04-20T11:26:58.226Z,6352.00
2023-04-20T11:27:58.186Z,6620.00
2023-04-20T11:28:58.143Z,6544.00
2023-04-20T11:29:58.143Z,6076.00
2023-04-20T11:30:58.141Z,5872.00
2023-04-20T11:31:58.311Z,6040.00
2023-04-20T11:32:58.251Z,6064.00
2023-04-20T11:33:58.090Z,6944.00
2023-04-20T11:35:05.957Z,7688.00
2023-04-20T11:35:58.092Z,7444.00
2023-04-20T11:36:58.066Z,7724.00
2023-04-20T11:37:58.046Z,8660.00
2023-04-20T11:38:58.056Z,8696.00
2023-04-20T11:39:58.011Z,9292.00
2023-04-20T11:40:58.017Z,9172.00
2023-04-20T11:41:57.998Z,9736.00
2023-04-20T11:42:57.989Z,10792.00
2023-04-20T11:43:57.963Z,11260.00
2023-04-20T11:44:58.185Z,12348.00
2023-04-20T11:45:58.015Z,12512.00
2023-04-20T11:46:57.935Z,12376.00
2023-04-20T11:47:57.996Z,12772.00
2023-04-20T11:48:57.923Z,12976.00
2023-04-20T11:49:57.928Z,13844.00
2023-04-20T11:50:57.905Z,13348.00
2023-04-20T11:51:57.897Z,14364.00
2023-04-20T11:52:57.877Z,14728.00
2023-04-20T11:53:57.878Z,14532.00
2023-04-20T11:54:57.857Z,15048.00
2023-04-20T11:55:57.840Z,14744.00
2023-04-20T11:56:57.843Z,15720.00
2023-04-20T11:57:57.824Z,17424.00
2023-04-20T11:58:57.816Z,16648.00
2023-04-20T11:59:57.820Z,15912.00
2023-04-20T12:00:57.789Z,16304.00
2023-04-20T12:01:57.828Z,16440.00
2023-04-20T12:02:57.872Z,16492.00
2023-04-20T12:03:58.007Z,16804.00
2023-04-20T12:04:57.897Z,16948.00
2023-04-20T12:05:57.763Z,16964.00
2023-04-20T12:06:57.706Z,16908.00
2023-04-20T12:07:57.719Z,16532.00
2023-04-20T12:08:57.745Z,14884.00
2023-04-20T12:09:57.686Z,15308.00
2023-04-20T12:10:58.654Z,14580.00
2023-04-20T12:11:57.662Z,13776.00
2023-04-20T12:12:57.658Z,12116.00
2023-04-20T12:13:57.654Z,11328.00
2023-04-20T12:14:57.630Z,9904.00
2023-04-20T12:15:57.649Z,8428.00
2023-04-20T12:16:58.664Z,8108.00
2023-04-20T12:17:57.629Z,8216.00
2023-04-20T12:18:57.585Z,8156.00
2023-04-20T12:19:57.617Z,8308.00
2023-04-20T12:20:57.572Z,8480.00
2023-04-20T12:21:57.574Z,9168.00
2023-04-20T12:22:58.948Z,10612.00
2023-04-20T12:23:57.540Z,10764.00
2023-04-20T12:24:57.528Z,10480.00
2023-04-20T12:25:57.517Z,12140.00
2023-04-20T12:26:57.524Z,13700.00
2023-04-20T12:27:57.524Z,12664.00
2023-04-20T12:28:57.497Z,10652.00
2023-04-20T12:29:57.452Z,10800.00
2023-04-20T12:30:57.489Z,12664.00
2023-04-20T12:31:57.542Z,15464.00
2023-04-20T12:32:57.482Z,14604.00
2023-04-20T12:33:57.412Z,14488.00
2023-04-20T12:34:57.428Z,11024.00
2023-04-20T12:35:57.420Z,9444.00
2023-04-20T12:36:57.406Z,10752.00
2023-04-20T12:37:57.409Z,10928.00
2023-04-20T12:38:57.392Z,9120.00
2023-04-20T12:39:57.372Z,7940.00
2023-04-20T12:40:57.333Z,9132.00
2023-04-20T12:41:57.337Z,9720.00
2023-04-20T12:42:57.329Z,8680.00
2023-04-20T12:43:57.314Z,8212.00
2023-04-20T12:44:57.316Z,8120.00
2023-04-20T12:45:57.318Z,8000.00
2023-04-20T12:46:57.350Z,7880.00
2023-04-20T12:47:58.484Z,7344.00
2023-04-20T12:48:57.264Z,6756.00
2023-04-20T12:49:57.232Z,5608.00
2023-04-20T12:50:57.269Z,4464.00
2023-04-20T12:51:57.225Z,3944.00
2023-04-20T12:52:57.223Z,3620.00
2023-04-20T12:53:57.221Z,3740.00
2023-04-20T12:54:57.192Z,3884.00
2023-04-20T12:56:01.045Z,4368.00
2023-04-20T12:56:57.155Z,4748.00
2023-04-20T12:57:57.163Z,4472.00
2023-04-20T12:58:57.152Z,4800.00
2023-04-20T12:59:57.128Z,5156.00
2023-04-20T13:00:57.169Z,5640.00
2023-04-20T13:01:57.142Z,5324.00
2023-04-20T13:02:57.311Z,4880.00
2023-04-20T13:03:57.339Z,4916.00
2023-04-20T13:04:57.066Z,5152.00
2023-04-20T13:05:57.071Z,5208.00
2023-04-20T13:06:57.037Z,5812.00
2023-04-20T13:07:57.060Z,6956.00
2023-04-20T13:08:57.064Z,7128.00
2023-04-20T13:09:57.016Z,6680.00
2023-04-20T13:10:57.019Z,6436.00
2023-04-20T13:11:57.017Z,6172.00
2023-04-20T13:12:57.001Z,6092.00
2023-04-20T13:13:56.997Z,6584.00
2023-04-20T13:14:56.952Z,7292.00
2023-04-20T13:15:57.004Z,7508.00
2023-04-20T13:16:57.018Z,7180.00
2023-04-20T13:17:56.980Z,6912.00
2023-04-20T13:18:56.994Z,6292.00
2023-04-20T13:19:56.903Z,5360.00
2023-04-20T13:20:56.923Z,5016.00
2023-04-20T13:21:56.901Z,4300.00
2023-04-20T13:22:58.152Z,3700.00
2023-04-20T13:23:57.118Z,3672.00
2023-04-20T13:24:56.863Z,3504.00
2023-04-20T13:25:56.866Z,3420.00
2023-04-20T13:26:56.880Z,3692.00
2023-04-20T13:27:56.833Z,3908.00
2023-04-20T13:28:56.799Z,3800.00
2023-04-20T13:29:56.848Z,3684.00
2023-04-20T13:30:56.773Z,3992.00
2023-04-20T13:31:56.809Z,4404.00
2023-04-20T13:32:56.825Z,4576.00
2023-04-20T13:33:56.763Z,4456.00
2023-04-20T13:34:56.753Z,4428.00
2023-04-20T13:35:56.727Z,4780.00
2023-04-20T13:36:56.745Z,5332.00
2023-04-20T13:37:56.737Z,6316.00
2023-04-20T13:38:56.703Z,7152.00
2023-04-20T13:39:56.700Z,7516.00
2023-04-20T13:40:56.700Z,7792.00
2023-04-20T13:41:56.660Z,8196.00
2023-04-20T13:42:56.669Z,7612.00
2023-04-20T13:43:56.648Z,6900.00
2023-04-20T13:44:56.645Z,6408.00
2023-04-20T13:45:56.651Z,5624.00
2023-04-20T13:46:56.628Z,4472.00
2023-04-20T13:47:56.626Z,3500.00
2023-04-20T13:48:56.616Z,3064.00
2023-04-20T13:49:56.606Z,2980.00
2023-04-20T13:50:56.567Z,2920.00
2023-04-20T13:51:56.577Z,2892.00
2023-04-20T13:52:56.564Z,2852.00
2023-04-20T13:53:56.547Z,2800.00
2023-04-20T13:54:56.528Z,2888.00
2023-04-20T13:55:56.525Z,3064.00
2023-04-20T13:56:56.501Z,3180.00
2023-04-20T13:57:56.497Z,3096.00
2023-04-20T13:58:56.486Z,3064.00
2023-04-20T13:59:56.512Z,3236.00
2023-04-20T14:00:56.522Z,3296.00
2023-04-20T14:01:56.458Z,3240.00
2023-04-20T14:02:56.491Z,3100.00
2023-04-20T14:03:56.514Z,3316.00
2023-04-20T14:04:56.484Z,3412.00
2023-04-20T14:05:56.414Z,3444.00
2023-04-20T14:06:56.405Z,3388.00
2023-04-20T14:07:56.404Z,3200.00
2023-04-20T14:08:56.384Z,3236.00
2023-04-20T14:09:56.623Z,3564.00
2023-04-20T14:10:56.364Z,3796.00
2023-04-20T14:11:57.160Z,3888.00
2023-04-20T14:12:56.324Z,3740.00
2023-04-20T14:13:56.318Z,3472.00
2023-04-20T14:14:56.309Z,3068.00
2023-04-20T14:15:56.333Z,2980.00
2023-04-20T14:16:56.294Z,2968.00
2023-04-20T14:17:56.315Z,3284.00
2023-04-20T14:18:56.259Z,3792.00
2023-04-20T14:19:56.243Z,3796.00
2023-04-20T14:20:56.238Z,3484.00
2023-04-20T14:21:56.229Z,3116.00
2023-04-20T14:22:56.215Z,2920.00
2023-04-20T14:23:56.223Z,2628.00
2023-04-20T14:24:56.181Z,2596.00
2023-04-20T14:25:56.187Z,2528.00
2023-04-20T14:26:56.185Z,2428.00
2023-04-20T14:27:56.175Z,2812.00
2023-04-20T14:28:56.169Z,2896.00
2023-04-20T14:29:56.171Z,2668.00
2023-04-20T14:30:56.170Z,2604.00
2023-04-20T14:31:56.201Z,2684.00
2023-04-20T14:32:56.215Z,2812.00
2023-04-20T14:33:56.110Z,2696.00
2023-04-20T14:34:56.146Z,2420.00
2023-04-20T14:35:56.227Z,2192.00
2023-04-20T14:36:56.093Z,2252.00
2023-04-20T14:37:56.032Z,2248.00
2023-04-20T14:38:56.047Z,2380.00
2023-04-20T14:39:56.069Z,2708.00
2023-04-20T14:40:56.034Z,2876.00
2023-04-20T14:41:55.992Z,2572.00
2023-04-20T14:42:56.005Z,2188.00
2023-04-20T14:43:55.995Z,2212.00
2023-04-20T14:44:55.980Z,2312.00
2023-04-20T14:45:55.972Z,2436.00
2023-04-20T14:46:56.043Z,2440.00
2023-04-20T14:47:55.992Z,2236.00
2023-04-20T14:48:55.939Z,2168.00
2023-04-20T14:49:55.918Z,1880.00
2023-04-20T14:50:55.940Z,1716.00
2023-04-20T14:51:55.902Z,1696.00
2023-04-20T14:52:55.885Z,1652.00
2023-04-20T14:53:55.875Z,1520.00
2023-04-20T14:54:55.864Z,1456.00
2023-04-20T14:55:55.839Z,1536.00
2023-04-20T14:56:55.864Z,1680.00
2023-04-20T14:57:55.820Z,1844.00
2023-04-20T14:58:55.845Z,2060.00
2023-04-20T14:59:55.822Z,2160.00
2023-04-20T15:00:55.785Z,2136.00
2023-04-20T15:02:02.738Z,2044.00
2023-04-20T15:02:55.951Z,2060.00
2023-04-20T15:03:56.071Z,2132.00
2023-04-20T15:04:55.995Z,2172.00
2023-04-20T15:05:55.926Z,2176.00
2023-04-20T15:06:55.737Z,2224.00
2023-04-20T15:07:55.768Z,2304.00
2023-04-20T15:08:55.717Z,2292.00
2023-04-20T15:09:55.703Z,2160.00
2023-04-20T15:10:55.734Z,2196.00
2023-04-20T15:11:55.677Z,2180.00
2023-04-20T15:12:55.663Z,2132.00
2023-04-20T15:13:55.647Z,2132.00
2023-04-20T15:14:55.676Z,2248.00
2023-04-20T15:15:55.661Z,2408.00
2023-04-20T15:16:55.663Z,2388.00
2023-04-20T15:17:55.677Z,2260.00
2023-04-20T15:18:55.600Z,2216.00
2023-04-20T15:19:55.576Z,2284.00
2023-04-20T15:20:55.579Z,2368.00
2023-04-20T15:21:55.563Z,2356.00
2023-04-20T15:22:55.576Z,2288.00
2023-04-20T15:23:55.532Z,2264.00
2023-04-20T15:24:55.561Z,2316.00
2023-04-20T15:25:55.505Z,2408.00
2023-04-20T15:26:55.520Z,2508.00
2023-04-20T15:27:55.501Z,2656.00
2023-04-20T15:28:55.503Z,2792.00
2023-04-20T15:29:55.467Z,2828.00
2023-04-20T15:30:55.544Z,2804.00
2023-04-20T15:31:55.528Z,2816.00
2023-04-20T15:32:55.569Z,2880.00
2023-04-20T15:33:55.428Z,2984.00
2023-04-20T15:34:55.476Z,3044.00
2023-04-20T15:35:55.412Z,2912.00
2023-04-20T15:36:55.409Z,2648.00
2023-04-20T15:37:55.404Z,2372.00
2023-04-20T15:38:57.572Z,2320.00
2023-04-20T15:39:55.378Z,2344.00
2023-04-20T15:40:55.380Z,2224.00
2023-04-20T15:41:55.328Z,2148.00
2023-04-20T15:42:55.418Z,2108.00
2023-04-20T15:43:55.325Z,2152.00
2023-04-20T15:44:55.323Z,2196.00
2023-04-20T15:45:55.366Z,2288.00
2023-04-20T15:46:55.347Z,2376.00
2023-04-20T15:47:55.309Z,2508.00
2023-04-20T15:48:55.252Z,2652.00
2023-04-20T15:49:55.266Z,2704.00
2023-04-20T15:50:55.245Z,2788.00
2023-04-20T15:51:55.222Z,2800.00
2023-04-20T15:52:55.231Z,2728.00
2023-04-20T15:53:55.265Z,2788.00
2023-04-20T15:54:55.198Z,2824.00
2023-04-20T15:55:55.207Z,2796.00
2023-04-20T15:56:55.234Z,2652.00
2023-04-20T15:57:55.165Z,2320.00
2023-04-20T15:58:55.153Z,2028.00
2023-04-20T15:59:55.140Z,1776.00
2023-04-20T16:00:55.184Z,1568.00
2023-04-20T16:01:55.266Z,1424.00
2023-04-20T16:02:55.280Z,1336.00
2023-04-20T16:03:55.341Z,1272.00
2023-04-20T16:04:55.263Z,1252.00
2023-04-20T16:05:55.109Z,1324.00
2023-04-20T16:06:55.086Z,1512.00
2023-04-20T16:07:55.084Z,1788.00
2023-04-20T16:08:55.051Z,2164.00
2023-04-20T16:09:55.036Z,2376.00
2023-04-20T16:10:55.052Z,2460.00
2023-04-20T16:11:55.017Z,2392.00
2023-04-20T16:12:55.002Z,2368.00
2023-04-20T16:13:54.970Z,2304.00
2023-04-20T16:14:54.972Z,2412.00
2023-04-20T16:15:55.001Z,2692.00
2023-04-20T16:16:54.959Z,2992.00
2023-04-20T16:17:55.020Z,3084.00
2023-04-20T16:18:54.929Z,3004.00
2023-04-20T16:19:54.911Z,2908.00
2023-04-20T16:20:54.901Z,2872.00
2023-04-20T16:21:54.908Z,2680.00
2023-04-20T16:22:54.904Z,2460.00
2023-04-20T16:23:54.870Z,2232.00
2023-04-20T16:24:54.873Z,2028.00
2023-04-20T16:25:54.852Z,1924.00
2023-04-20T16:26:54.851Z,1964.00
2023-04-20T16:27:54.856Z,2148.00
2023-04-20T16:28:54.830Z,2500.00
2023-04-20T16:29:54.832Z,2924.00
2023-04-20T16:30:54.918Z,3224.00
2023-04-20T16:31:54.879Z,3560.00
2023-04-20T16:32:54.883Z,3692.00
2023-04-20T16:33:54.764Z,3596.00
2023-04-20T16:34:54.770Z,3252.00
2023-04-20T16:35:54.756Z,2712.00
2023-04-20T16:36:54.742Z,2416.00
2023-04-20T16:37:54.734Z,2392.00
2023-04-20T16:38:54.776Z,2548.00
2023-04-20T16:39:54.714Z,2592.00
2023-04-20T16:40:54.707Z,2720.00
2023-04-20T16:41:54.727Z,2848.00
2023-04-20T16:42:54.703Z,2872.00
2023-04-20T16:43:54.656Z,2916.00
2023-04-20T16:44:54.653Z,2876.00
2023-04-20T16:45:54.672Z,2544.00
2023-04-20T16:46:54.664Z,2204.00
2023-04-20T16:47:54.709Z,2032.00
2023-04-20T16:48:54.641Z,2104.00
2023-04-20T16:49:54.594Z,2344.00
2023-04-20T16:50:54.590Z,2788.00
2023-04-20T16:51:54.606Z,3256.00
2023-04-20T16:52:54.594Z,3552.00
2023-04-20T16:53:54.550Z,3692.00
2023-04-20T16:54:54.560Z,3760.00
2023-04-20T16:55:54.526Z,3964.00
2023-04-20T16:56:54.504Z,4200.00
2023-04-20T16:57:54.532Z,4356.00
2023-04-20T16:58:54.540Z,4636.00
2023-04-20T16:59:54.481Z,4724.00
2023-04-20T17:00:54.526Z,4836.00
2023-04-20T17:01:54.493Z,5312.00
2023-04-20T17:02:54.624Z,5284.00
2023-04-20T17:03:54.636Z,5288.00
2023-04-20T17:04:54.455Z,5944.00
2023-04-20T17:05:54.422Z,5088.00
2023-04-20T17:06:54.491Z,4192.00
2023-04-20T17:07:54.406Z,3564.00
2023-04-20T17:08:54.461Z,3272.00
2023-04-20T17:09:54.364Z,2992.00
2023-04-20T17:10:54.431Z,2840.00
2023-04-20T17:11:54.338Z,2636.00
2023-04-20T17:12:54.327Z,2556.00
2023-04-20T17:13:54.373Z,2232.00
2023-04-20T17:14:54.328Z,2036.00
2023-04-20T17:15:54.306Z,2012.00
2023-04-20T17:16:54.470Z,2116.00
2023-04-20T17:17:54.359Z,2348.00
2023-04-20T17:18:54.264Z,2452.00
2023-04-20T17:19:54.244Z,2636.00
2023-04-20T17:20:54.266Z,2968.00
2023-04-20T17:21:54.231Z,3272.00
2023-04-20T17:22:54.228Z,3208.00
2023-04-20T17:23:54.240Z,2936.00
2023-04-20T17:24:54.233Z,2708.00
2023-04-20T17:25:54.199Z,2456.00
2023-04-20T17:26:54.184Z,2268.00
2023-04-20T17:27:54.190Z,2128.00